Time,TemperatureF,DewpointF,PressureIn,WindDirection,WindDirectionDegrees,WindSpeedMPH,WindSpeedGustMPH,Humidity,HourlyPrecipIn,Conditions,Clouds,dailyrainin,SoftwareType,DateUTC
2013-04-05 00:20:00,53.2,50.0,29.99,WNW,301,0.0,-999.0,90,-99.99,,,0.00,weatherlink.com 1.10,2013-04-05 05:20:00,
2013-04-05 00:36:00,52.6,50.0,29.99,NW,310,4.0,-999.0,90,-99.99,,,0.00,weatherlink.com 1.10,2013-04-05 05:36:00,
2013-04-05 00:50:00,52.2,49.0,29.99,NW,325,1.0,-999.0,90,-99.99,,,0.00,weatherlink.com 1.10,2013-04-05 05:50:00,
2013-04-05 01:05:00,52.1,49.0,29.99,West,261,0.0,-999.0,89,-99.99,,,0.00,weatherlink.com 1.10,2013-04-05 06:05:00,
2013-04-05 01:20:00,52.0,49.0,29.98,North,350,0.0,-999.0,89,-99.99,,,0.00,weatherlink.com 1.10,2013-04-05 06:20:00,
2013-04-05 01:35:00,52.1,49.0,29.98,NW,306,0.0,-999.0,89,-99.99,,,0.00,weatherlink.com 1.10,2013-04-05 06:35:00,
2013-04-05 01:50:00,52.0,49.0,29.98,NW,315,0.0,-999.0,89,-99.99,,,0.00,weatherlink.com 1.10,2013-04-05 06:50:00,
2013-04-05 02:05:00,51.9,49.0,29.99,WNW,296,0.0,-999.0,90,-99.99,,,0.00,weatherlink.com 1.10,2013-04-05 07:05:00,
2013-04-05 02:20:00,51.8,49.0,29.99,NW,305,0.0,-999.0,90,-99.99,,,0.00,weatherlink.com 1.10,2013-04-05 07:20:00,
2013-04-05 02:35:00,51.7,49.0,29.98,NW,318,0.0,-999.0,90,-99.99,,,0.00,weatherlink.com 1.10,2013-04-05 07:35:00,
2013-04-05 02:50:00,51.6,49.0,29.99,WNW,302,2.0,-999.0,89,-99.99,,,0.00,weatherlink.com 1.10,2013-04-05 07:50:00,
2013-04-05 03:05:00,51.4,48.0,30.00,NNE,16,0.0,-999.0,88,-99.99,,,0.00,weatherlink.com 1.10,2013-04-05 08:05:00,
2013-04-05 03:20:00,51.2,48.0,30.00,NW,313,0.0,-999.0,87,-99.99,,,0.00,weatherlink.com 1.10,2013-04-05 08:20:00,
2013-04-05 03:36:00,51.0,48.0,30.00,NW,319,0.0,-999.0,88,-99.99,,,0.00,weatherlink.com 1.10,2013-04-05 08:36:00,
2013-04-05 03:51:00,50.9,48.0,30.01,NNW,337,0.0,-999.0,88,-99.99,,,0.00,weatherlink.com 1.10,2013-04-05 08:51:00,
2013-04-05 04:05:00,50.8,47.0,30.01,WNW,294,4.0,-999.0,88,-99.99,,,0.00,weatherlink.com 1.10,2013-04-05 09:05:00,
2013-04-05 04:20:00,50.7,48.0,30.01,ENE,57,0.0,-999.0,89,-99.99,,,0.00,weatherlink.com 1.10,2013-04-05 09:20:00,
2013-04-05 04:35:00,50.7,48.0,30.02,NW,314,1.0,-999.0,90,-99.99,,,0.00,weatherlink.com 1.10,2013-04-05 09:35:00,
2013-04-05 05:05:00,50.4,47.0,30.02,NE,46,0.0,-999.0,89,-99.99,,,0.00,weatherlink.com 1.10,2013-04-05 10:05:00,
2013-04-05 05:20:00,50.3,48.0,30.02,NNW,330,0.0,-999.0,90,-99.99,,,0.00,weatherlink.com 1.10,2013-04-05 10:20:00,
2013-04-05 05:35:00,50.3,48.0,30.02,WNW,298,0.0,-999.0,90,-99.99,,,0.00,weatherlink.com 1.10,2013-04-05 10:35:00,
2013-04-05 05:50:00,50.2,47.0,30.03,North,11,1.0,-999.0,89,-99.99,,,0.00,weatherlink.com 1.10,2013-04-05 10:50:00,
2013-04-05 06:05:00,50.1,47.0,30.03,NW,319,0.0,-999.0,90,-99.99,,,0.00,weatherlink.com 1.10,2013-04-05 11:05:00,
2013-04-05 06:20:00,50.2,48.0,30.03,NW,321,0.0,-999.0,91,-99.99,,,0.00,weatherlink.com 1.10,2013-04-05 11:20:00,
2013-04-05 06:36:00,50.1,47.0,30.04,NNW,338,0.0,-999.0,90,-99.99,,,0.00,weatherlink.com 1.10,2013-04-05 11:36:00,
2013-04-05 06:51:00,49.9,47.0,30.04,NW,308,0.0,-999.0,89,-99.99,,,0.00,weatherlink.com 1.10,2013-04-05 11:51:00,
2013-04-05 07:06:00,49.9,47.0,30.06,NNE,28,0.0,-999.0,89,-99.99,,,0.00,weatherlink.com 1.10,2013-04-05 12:06:00,
2013-04-05 07:21:00,49.9,47.0,30.07,WNW,295,0.0,-999.0,89,-99.99,,,0.00,weatherlink.com 1.10,2013-04-05 12:21:00,
2013-04-05 07:36:00,49.9,47.0,30.08,West,269,4.0,-999.0,89,-99.99,,,0.00,weatherlink.com 1.10,2013-04-05 12:36:00,
2013-04-05 08:21:00,50.2,47.0,30.09,NNW,331,0.0,-999.0,90,-99.99,,,0.00,weatherlink.com 1.10,2013-04-05 13:21:00,
2013-04-05 08:36:00,50.5,48.0,30.09,NE,55,0.0,-999.0,90,-99.99,,,0.00,weatherlink.com 1.10,2013-04-05 13:36:00,
2013-04-05 08:51:00,50.8,48.0,30.10,North,349,0.0,-999.0,90,-99.99,,,0.00,weatherlink.com 1.10,2013-04-05 13:51:00,
2013-04-05 09:06:00,51.1,48.0,30.10,SSE,167,2.0,-999.0,89,-99.99,,,0.00,weatherlink.com 1.10,2013-04-05 14:06:00,
2013-04-05 09:37:00,51.7,49.0,30.12,NW,317,0.0,-999.0,89,-99.99,,,0.00,weatherlink.com 1.10,2013-04-05 14:37:00,
2013-04-05 09:52:00,52.0,49.0,30.13,WNW,290,1.0,-999.0,88,-99.99,,,0.00,weatherlink.com 1.10,2013-04-05 14:52:00,
2013-04-05 10:07:00,52.3,49.0,30.13,WNW,299,2.0,-999.0,88,-99.99,,,0.00,weatherlink.com 1.10,2013-04-05 15:07:00,
2013-04-05 10:22:00,52.7,49.0,30.13,SW,234,0.0,-999.0,87,-99.99,,,0.00,weatherlink.com 1.10,2013-04-05 15:22:00,
2013-04-05 10:37:00,53.4,50.0,30.13,North,9,0.0,-999.0,88,-99.99,,,0.00,weatherlink.com 1.10,2013-04-05 15:37:00,
2013-04-05 10:52:00,54.4,50.0,30.12,West,263,1.0,-999.0,85,-99.99,,,0.00,weatherlink.com 1.10,2013-04-05 15:52:00,
2013-04-05 11:08:00,55.2,50.0,30.12,ENE,59,3.0,-999.0,83,-99.99,,,0.00,weatherlink.com 1.10,2013-04-05 16:08:00,
2013-04-05 11:22:00,55.7,51.0,30.12,NNE,27,0.0,-999.0,83,-99.99,,,0.00,weatherlink.com 1.10,2013-04-05 16:22:00,
2013-04-05 11:37:00,56.6,51.0,30.11,NW,315,1.0,-999.0,81,-99.99,,,0.00,weatherlink.com 1.10,2013-04-05 16:37:00,
2013-04-05 11:52:00,57.3,51.0,30.10,ENE,69,0.0,-999.0,80,-99.99,,,0.00,weatherlink.com 1.10,2013-04-05 16:52:00,
2013-04-05 12:07:00,58.4,52.0,30.10,WNW,303,5.0,-999.0,78,-99.99,,,0.00,weatherlink.com 1.10,2013-04-05 17:07:00,
2013-04-05 12:37:00,61.6,52.0,30.10,NE,38,1.0,-999.0,72,-99.99,,,0.00,weatherlink.com 1.10,2013-04-05 17:37:00,
2013-04-05 12:52:00,62.1,53.0,30.10,NW,321,6.0,-999.0,71,-99.99,,,0.00,weatherlink.com 1.10,2013-04-05 17:52:00,
2013-04-05 13:07:00,62.5,53.0,30.09,NNE,31,0.0,-999.0,70,-99.99,,,0.00,weatherlink.com 1.10,2013-04-05 18:07:00,
2013-04-05 13:22:00,63.2,54.0,30.08,NNE,20,0.0,-999.0,72,-99.99,,,0.00,weatherlink.com 1.10,2013-04-05 18:22:00,
2013-04-05 13:37:00,64.9,54.0,30.07,NE,34,2.0,-999.0,67,-99.99,,,0.00,weatherlink.com 1.10,2013-04-05 18:37:00,
2013-04-05 13:52:00,65.4,54.0,30.07,NE,42,4.0,-999.0,66,-99.99,,,0.00,weatherlink.com 1.10,2013-04-05 18:52:00,
2013-04-05 14:07:00,66.1,54.0,30.06,North,360,0.0,-999.0,66,-99.99,,,0.00,weatherlink.com 1.10,2013-04-05 19:07:00,
2013-04-05 14:22:00,67.7,54.0,30.06,East,80,1.0,-999.0,62,-99.99,,,0.00,weatherlink.com 1.10,2013-04-05 19:22:00,
2013-04-05 14:38:00,68.2,55.0,30.05,NNE,14,0.0,-999.0,63,-99.99,,,0.00,weatherlink.com 1.10,2013-04-05 19:38:00,
2013-04-05 14:53:00,69.5,55.0,30.04,ENE,57,2.0,-999.0,61,-99.99,,,0.00,weatherlink.com 1.10,2013-04-05 19:53:00,
2013-04-05 15:09:00,69.6,55.0,30.03,NNW,347,2.0,-999.0,60,-99.99,,,0.00,weatherlink.com 1.10,2013-04-05 20:09:00,
2013-04-05 15:23:00,69.9,55.0,30.03,WSW,250,0.0,-999.0,59,-99.99,,,0.00,weatherlink.com 1.10,2013-04-05 20:23:00,
2013-04-05 15:38:00,70.8,55.0,30.03,ESE,105,4.0,-999.0,57,-99.99,,,0.00,weatherlink.com 1.10,2013-04-05 20:38:00,
2013-04-05 15:54:00,71.4,55.0,30.03,North,5,0.0,-999.0,56,-99.99,,,0.00,weatherlink.com 1.10,2013-04-05 20:54:00,
2013-04-05 16:08:00,71.6,55.0,30.02,ENE,60,4.0,-999.0,56,-99.99,,,0.00,weatherlink.com 1.10,2013-04-05 21:08:00,
2013-04-05 16:23:00,71.8,53.0,30.02,NE,46,1.0,-999.0,52,-99.99,,,0.00,weatherlink.com 1.10,2013-04-05 21:23:00,
2013-04-05 16:53:00,71.4,52.0,30.02,East,93,1.0,-999.0,51,-99.99,,,0.00,weatherlink.com 1.10,2013-04-05 21:53:00,
2013-04-05 17:08:00,70.8,52.0,30.02,North,9,0.0,-999.0,52,-99.99,,,0.00,weatherlink.com 1.10,2013-04-05 22:08:00,
2013-04-05 17:23:00,70.0,52.0,30.03,East,81,0.0,-999.0,53,-99.99,,,0.00,weatherlink.com 1.10,2013-04-05 22:23:00,
2013-04-05 17:38:00,69.4,52.0,30.02,NNE,24,0.0,-999.0,54,-99.99,,,0.00,weatherlink.com 1.10,2013-04-05 22:38:00,
2013-04-05 17:53:00,68.7,51.0,30.02,NNE,13,3.0,-999.0,54,-99.99,,,0.00,weatherlink.com 1.10,2013-04-05 22:53:00,
2013-04-05 18:38:00,66.9,51.0,30.03,NNE,33,0.0,-999.0,56,-99.99,,,0.00,weatherlink.com 1.10,2013-04-05 23:38:00,
2013-04-05 18:53:00,66.2,51.0,30.04,North,5,0.0,-999.0,59,-99.99,,,0.00,weatherlink.com 1.10,2013-04-05 23:53:00,
2013-04-05 19:10:00,65.2,52.0,30.04,North,11,0.0,-999.0,63,-99.99,,,0.00,weatherlink.com 1.10,2013-04-06 00:10:00,
2013-04-05 19:23:00,64.4,52.0,30.05,North,11,0.0,-999.0,65,-99.99,,,0.00,weatherlink.com 1.10,2013-04-06 00:23:00,
2013-04-05 19:38:00,62.9,53.0,30.06,North,11,0.0,-999.0,69,-99.99,,,0.00,weatherlink.com 1.10,2013-04-06 00:38:00,
2013-04-05 19:53:00,61.4,52.0,30.07,North,11,0.0,-999.0,71,-99.99,,,0.00,weatherlink.com 1.10,2013-04-06 00:53:00,
2013-04-05 20:23:00,59.0,52.0,30.07,North,11,0.0,-999.0,77,-99.99,,,0.00,weatherlink.com 1.10,2013-04-06 01:23:00,
2013-04-05 20:38:00,57.9,52.0,30.08,North,11,0.0,-999.0,80,-99.99,,,0.00,weatherlink.com 1.10,2013-04-06 01:38:00,
2013-04-05 20:53:00,57.0,52.0,30.09,North,11,0.0,-999.0,82,-99.99,,,0.00,weatherlink.com 1.10,2013-04-06 01:53:00,
2013-04-05 21:08:00,56.3,51.0,30.09,North,11,0.0,-999.0,83,-99.99,,,0.00,weatherlink.com 1.10,2013-04-06 02:08:00,
2013-04-05 21:23:00,55.8,51.0,30.10,North,11,0.0,-999.0,85,-99.99,,,0.00,weatherlink.com 1.10,2013-04-06 02:23:00,
2013-04-05 21:38:00,55.2,51.0,30.11,North,11,0.0,-999.0,85,-99.99,,,0.00,weatherlink.com 1.10,2013-04-06 02:38:00,
2013-04-05 21:53:00,54.9,51.0,30.11,North,11,0.0,-999.0,86,-99.99,,,0.00,weatherlink.com 1.10,2013-04-06 02:53:00,
2013-04-05 22:08:00,54.4,50.0,30.11,North,11,0.0,-999.0,86,-99.99,,,0.00,weatherlink.com 1.10,2013-04-06 03:08:00,
2013-04-05 22:23:00,53.9,50.0,30.11,North,11,0.0,-999.0,87,-99.99,,,0.00,weatherlink.com 1.10,2013-04-06 03:23:00,
2013-04-05 22:38:00,53.5,50.0,30.11,North,11,0.0,-999.0,88,-99.99,,,0.00,weatherlink.com 1.10,2013-04-06 03:38:00,
2013-04-05 22:53:00,53.0,50.0,30.11,North,11,0.0,-999.0,90,-99.99,,,0.00,weatherlink.com 1.10,2013-04-06 03:53:00,
2013-04-05 23:08:00,52.5,50.0,30.11,North,11,0.0,-999.0,90,-99.99,,,0.00,weatherlink.com 1.10,2013-04-06 04:08:00,
2013-04-05 23:23:00,51.9,49.0,30.12,North,11,0.0,-999.0,91,-99.99,,,0.00,weatherlink.com 1.10,2013-04-06 04:23:00,
2013-04-05 23:38:00,51.4,49.0,30.12,North,11,0.0,-999.0,91,-99.99,,,0.00,weatherlink.com 1.10,2013-04-06 04:38:00,
2013-04-05 23:53:00,51.0,49.0,30.12,North,11,0.0,-999.0,92,-99.99,,,0.00,weatherlink.com 1.10,2013-04-06 04:53:00,